ANZ698 NZNV-NZAA
Flight info
| Callsign | ANZ698 |
|---|---|
| Flight time | 1h 43m |
| Altitude | 35000 |
| Route | ANOPA Q787 QN Y569 LOVTA Y655 POKOM Q277 DAVEE |
| Aircraft | A320/M-SDE3FGHIRWY/LB1 |
Departure
| Time | 2026-05-04 19:54 |
|---|---|
| Airport | Invercargill Airport (NZNV) |
Arrival
| Time | 2026-05-04 21:38 |
|---|---|
| Airport | Auckland International Airport (NZAA) |
| Time | Latitude | Longitude | Altitude | Speed | Heading |
|---|---|---|---|---|---|
| 2026-05-04 19:22 | -46.41508 | 168.32158 | 14 ft | 0 kts | 172° |
| 2026-05-04 19:36 | -46.41491 | 168.32155 | 14 ft | 4 kts | 172° |
| 2026-05-04 19:36 | -46.41465 | 168.32154 | 13 ft | 4 kts | 204° |
| 2026-05-04 19:37 | -46.41458 | 168.32159 | 13 ft | 0 kts | 216° |
| 2026-05-04 19:40 | -46.41467 | 168.32150 | 11 ft | 3 kts | 221° |
| 2026-05-04 19:40 | -46.41470 | 168.32115 | 13 ft | 4 kts | 291° |
| 2026-05-04 19:40 | -46.41437 | 168.32083 | 15 ft | 7 kts | 333° |
| 2026-05-04 19:41 | -46.41381 | 168.32045 | 13 ft | 9 kts | 335° |
| 2026-05-04 19:41 | -46.41366 | 168.32035 | 12 ft | 0 kts | 335° |
| 2026-05-04 19:48 | -46.41358 | 168.32030 | 13 ft | 2 kts | 335° |
| 2026-05-04 19:48 | -46.41334 | 168.32014 | 13 ft | 5 kts | 335° |
| 2026-05-04 19:48 | -46.41297 | 168.31983 | 14 ft | 7 kts | 319° |
| 2026-05-04 19:49 | -46.41294 | 168.31911 | 13 ft | 9 kts | 249° |
| 2026-05-04 19:49 | -46.41323 | 168.31821 | 14 ft | 11 kts | 245° |
| 2026-05-04 19:49 | -46.41360 | 168.31705 | 14 ft | 14 kts | 244° |
| 2026-05-04 19:49 | -46.41403 | 168.31572 | 15 ft | 16 kts | 244° |
| 2026-05-04 19:50 | -46.41456 | 168.31409 | 14 ft | 20 kts | 245° |
| 2026-05-04 19:50 | -46.41519 | 168.31218 | 14 ft | 22 kts | 245° |
| 2026-05-04 19:50 | -46.41591 | 168.30996 | 12 ft | 26 kts | 245° |
| 2026-05-04 19:50 | -46.41669 | 168.30753 | 10 ft | 24 kts | 245° |
| 2026-05-04 19:51 | -46.41736 | 168.30547 | 11 ft | 23 kts | 245° |
| 2026-05-04 19:51 | -46.41809 | 168.30326 | 12 ft | 23 kts | 244° |
| 2026-05-04 19:51 | -46.41866 | 168.30153 | 12 ft | 13 kts | 241° |
| 2026-05-04 19:51 | -46.41901 | 168.30102 | 12 ft | 6 kts | 231° |
| 2026-05-04 19:52 | -46.41887 | 168.30093 | 12 ft | 2 kts | 44° |
| 2026-05-04 19:52 | -46.41875 | 168.30123 | 12 ft | 2 kts | 63° |
| 2026-05-04 19:52 | -46.41875 | 168.30124 | 12 ft | 0 kts | 63° |
| 2026-05-04 19:53 | -46.41874 | 168.30126 | 9 ft | 0 kts | 63° |
| 2026-05-04 19:53 | -46.41806 | 168.30330 | 12 ft | 60 kts | 65° |
| 2026-05-04 19:53 | -46.41525 | 168.31195 | 14 ft | 125 kts | 65° |
| 2026-05-04 19:54 | -46.41093 | 168.32530 | 219 ft | 154 kts | 64° |
| 2026-05-04 19:54 | -46.40648 | 168.33935 | 898 ft | 154 kts | 61° |
| 2026-05-04 19:54 | -46.40190 | 168.35337 | 1564 ft | 155 kts | 60° |
| 2026-05-04 19:54 | -46.39708 | 168.36786 | 1936 ft | 169 kts | 61° |
| 2026-05-04 19:55 | -46.39169 | 168.38407 | 2234 ft | 188 kts | 62° |
| 2026-05-04 19:55 | -46.38551 | 168.40158 | 2594 ft | 202 kts | 51° |
| 2026-05-04 19:55 | -46.37383 | 168.41391 | 2819 ft | 222 kts | 13° |
| 2026-05-04 19:55 | -46.35799 | 168.41362 | 3227 ft | 239 kts | 344° |
| 2026-05-04 19:56 | -46.34161 | 168.40734 | 3980 ft | 248 kts | 348° |
| 2026-05-04 19:56 | -46.32422 | 168.40646 | 4882 ft | 252 kts | 3° |
| 2026-05-04 19:56 | -46.30673 | 168.41019 | 5788 ft | 257 kts | 7° |
| 2026-05-04 19:56 | -46.28912 | 168.41555 | 6667 ft | 260 kts | 9° |
| 2026-05-04 19:57 | -46.27141 | 168.42167 | 7507 ft | 263 kts | 8° |
| 2026-05-04 19:57 | -46.25350 | 168.42759 | 8326 ft | 265 kts | 7° |
| 2026-05-04 19:57 | -46.23535 | 168.43312 | 9153 ft | 268 kts | 6° |
| 2026-05-04 19:57 | -46.21695 | 168.43833 | 9927 ft | 272 kts | 6° |
| 2026-05-04 19:58 | -46.19795 | 168.44349 | 10397 ft | 288 kts | 5° |
| 2026-05-04 19:58 | -46.17738 | 168.44651 | 10588 ft | 307 kts | 356° |
| 2026-05-04 19:58 | -46.15540 | 168.44425 | 10749 ft | 325 kts | 347° |
| 2026-05-04 19:58 | -46.13316 | 168.43809 | 11236 ft | 334 kts | 346° |
| 2026-05-04 19:59 | -46.11021 | 168.43177 | 11882 ft | 338 kts | 347° |
| 2026-05-04 19:59 | -46.08624 | 168.42927 | 12543 ft | 345 kts | 358° |
| 2026-05-04 19:59 | -46.06250 | 168.43383 | 13193 ft | 353 kts | 9° |
| 2026-05-04 19:59 | -46.03848 | 168.44212 | 13861 ft | 357 kts | 9° |
| 2026-05-04 20:00 | -46.01426 | 168.45049 | 14481 ft | 360 kts | 9° |
| 2026-05-04 20:00 | -45.98984 | 168.45892 | 15060 ft | 362 kts | 9° |
| 2026-05-04 20:00 | -45.96523 | 168.46736 | 15596 ft | 365 kts | 10° |
| 2026-05-04 20:00 | -45.94040 | 168.47585 | 16162 ft | 368 kts | 10° |
| 2026-05-04 20:01 | -45.91537 | 168.48435 | 16745 ft | 371 kts | 10° |
| 2026-05-04 20:01 | -45.89015 | 168.49289 | 17344 ft | 374 kts | 10° |
| 2026-05-04 20:01 | -45.86473 | 168.50151 | 17953 ft | 377 kts | 10° |
| 2026-05-04 20:01 | -45.83913 | 168.51023 | 18563 ft | 380 kts | 10° |
| 2026-05-04 20:02 | -45.81331 | 168.51904 | 19116 ft | 383 kts | 10° |
| 2026-05-04 20:02 | -45.78727 | 168.52789 | 19642 ft | 386 kts | 10° |
| 2026-05-04 20:02 | -45.76093 | 168.53673 | 20149 ft | 390 kts | 10° |
| 2026-05-04 20:02 | -45.73440 | 168.54565 | 20681 ft | 393 kts | 10° |
| 2026-05-04 20:03 | -45.70767 | 168.55467 | 21187 ft | 396 kts | 11° |
| 2026-05-04 20:03 | -45.68076 | 168.56377 | 21680 ft | 399 kts | 11° |
| 2026-05-04 20:03 | -45.65365 | 168.57291 | 22151 ft | 402 kts | 11° |
| 2026-05-04 20:03 | -45.62637 | 168.58212 | 22593 ft | 404 kts | 11° |
| 2026-05-04 20:04 | -45.59892 | 168.59138 | 23054 ft | 407 kts | 11° |
| 2026-05-04 20:04 | -45.57130 | 168.60068 | 23475 ft | 409 kts | 11° |
| 2026-05-04 20:04 | -45.54350 | 168.61002 | 23905 ft | 412 kts | 11° |
| 2026-05-04 20:04 | -45.51553 | 168.61940 | 24275 ft | 414 kts | 11° |
| 2026-05-04 20:05 | -45.48737 | 168.62879 | 24612 ft | 417 kts | 11° |
| 2026-05-04 20:05 | -45.45900 | 168.63820 | 24937 ft | 420 kts | 11° |
| 2026-05-04 20:05 | -45.43043 | 168.64748 | 25254 ft | 423 kts | 10° |
| 2026-05-04 20:05 | -45.40161 | 168.65643 | 25554 ft | 425 kts | 9° |
| 2026-05-04 20:06 | -45.37258 | 168.66516 | 25863 ft | 428 kts | 9° |
| 2026-05-04 20:06 | -45.34331 | 168.67388 | 26175 ft | 430 kts | 9° |
| 2026-05-04 20:06 | -45.31431 | 168.68256 | 26480 ft | 433 kts | 9° |
| 2026-05-04 20:06 | -45.28475 | 168.69149 | 26794 ft | 436 kts | 10° |
| 2026-05-04 20:07 | -45.25500 | 168.70055 | 27090 ft | 439 kts | 10° |
| 2026-05-04 20:07 | -45.22507 | 168.70969 | 27387 ft | 441 kts | 9° |
| 2026-05-04 20:07 | -45.19495 | 168.71886 | 27662 ft | 444 kts | 10° |
| 2026-05-04 20:07 | -45.16462 | 168.72806 | 27936 ft | 447 kts | 10° |
| 2026-05-04 20:08 | -45.13416 | 168.73727 | 28307 ft | 448 kts | 10° |
| 2026-05-04 20:08 | -45.10371 | 168.74649 | 28726 ft | 447 kts | 9° |
| 2026-05-04 20:08 | -45.07328 | 168.75567 | 29193 ft | 447 kts | 9° |
| 2026-05-04 20:08 | -45.04284 | 168.76484 | 29622 ft | 447 kts | 9° |
| 2026-05-04 20:09 | -45.01241 | 168.77403 | 30050 ft | 447 kts | 11° |
| 2026-05-04 20:09 | -44.98251 | 168.78674 | 30500 ft | 450 kts | 19° |
| 2026-05-04 20:09 | -44.95426 | 168.80566 | 30872 ft | 452 kts | 27° |
| 2026-05-04 20:09 | -44.92677 | 168.82724 | 31261 ft | 451 kts | 27° |
| 2026-05-04 20:10 | -44.89936 | 168.84862 | 31661 ft | 450 kts | 27° |
| 2026-05-04 20:10 | -44.87198 | 168.86984 | 32068 ft | 449 kts | 27° |
| 2026-05-04 20:10 | -44.84464 | 168.89088 | 32482 ft | 447 kts | 27° |
| 2026-05-04 20:10 | -44.81734 | 168.91183 | 32894 ft | 446 kts | 27° |
| 2026-05-04 20:11 | -44.79013 | 168.93273 | 33312 ft | 445 kts | 27° |
| 2026-05-04 20:11 | -44.76300 | 168.95357 | 33733 ft | 444 kts | 27° |
| 2026-05-04 20:11 | -44.73593 | 168.97435 | 34148 ft | 443 kts | 27° |
| 2026-05-04 20:11 | -44.70887 | 168.99514 | 34557 ft | 442 kts | 28° |
| 2026-05-04 20:12 | -44.68212 | 169.01572 | 34898 ft | 441 kts | 28° |
| 2026-05-04 20:12 | -44.65518 | 169.03644 | 35213 ft | 441 kts | 28° |
| 2026-05-04 20:12 | -44.62824 | 169.05709 | 35424 ft | 442 kts | 27° |
| 2026-05-04 20:13 | -44.57404 | 169.09851 | 35481 ft | 451 kts | 27° |
| 2026-05-04 20:13 | -44.51868 | 169.14071 | 35488 ft | 454 kts | 27° |
| 2026-05-04 20:14 | -44.46319 | 169.18301 | 35494 ft | 455 kts | 27° |
| 2026-05-04 20:14 | -44.40756 | 169.22532 | 35494 ft | 455 kts | 26° |
| 2026-05-04 20:15 | -44.35184 | 169.26752 | 35496 ft | 456 kts | 26° |
| 2026-05-04 20:15 | -44.29610 | 169.30971 | 35507 ft | 456 kts | 27° |
| 2026-05-04 20:16 | -44.24025 | 169.35180 | 35520 ft | 456 kts | 26° |
| 2026-05-04 20:16 | -44.18447 | 169.39378 | 35534 ft | 456 kts | 27° |
| 2026-05-04 20:17 | -44.12868 | 169.43573 | 35529 ft | 456 kts | 26° |
| 2026-05-04 20:17 | -44.07278 | 169.47763 | 35525 ft | 457 kts | 27° |
| 2026-05-04 20:18 | -44.01682 | 169.51947 | 35539 ft | 457 kts | 27° |
| 2026-05-04 20:18 | -43.96090 | 169.56136 | 35549 ft | 457 kts | 27° |
| 2026-05-04 20:19 | -43.90489 | 169.60308 | 35533 ft | 457 kts | 27° |
| 2026-05-04 20:19 | -43.84877 | 169.64473 | 35533 ft | 457 kts | 27° |
| 2026-05-04 20:20 | -43.79307 | 169.68610 | 35540 ft | 457 kts | 27° |
| 2026-05-04 20:20 | -43.73700 | 169.72771 | 35521 ft | 457 kts | 27° |
| 2026-05-04 20:21 | -43.68090 | 169.76917 | 35532 ft | 457 kts | 27° |
| 2026-05-04 20:21 | -43.59668 | 169.83109 | 35528 ft | 458 kts | 27° |
| 2026-05-04 20:22 | -43.54040 | 169.87242 | 35505 ft | 458 kts | 27° |
| 2026-05-04 20:22 | -43.48483 | 169.91520 | 35521 ft | 458 kts | 34° |
| 2026-05-04 20:23 | -43.43555 | 169.97068 | 35526 ft | 458 kts | 40° |
| 2026-05-04 20:23 | -43.38701 | 170.02739 | 35524 ft | 458 kts | 40° |
| 2026-05-04 20:24 | -43.33839 | 170.08392 | 35520 ft | 458 kts | 40° |
| 2026-05-04 20:24 | -43.28975 | 170.14047 | 35531 ft | 458 kts | 40° |
| 2026-05-04 20:25 | -43.24110 | 170.19692 | 35531 ft | 458 kts | 40° |
| 2026-05-04 20:25 | -43.19234 | 170.25333 | 35521 ft | 459 kts | 40° |
| 2026-05-04 20:26 | -43.14349 | 170.30970 | 35533 ft | 459 kts | 40° |
| 2026-05-04 20:26 | -43.09458 | 170.36602 | 35532 ft | 460 kts | 40° |
| 2026-05-04 20:27 | -43.04562 | 170.42232 | 35533 ft | 460 kts | 40° |
| 2026-05-04 20:27 | -42.99658 | 170.47849 | 35546 ft | 460 kts | 40° |
| 2026-05-04 20:28 | -42.94745 | 170.53464 | 35545 ft | 460 kts | 40° |
| 2026-05-04 20:28 | -42.89836 | 170.59071 | 35549 ft | 460 kts | 40° |
| 2026-05-04 20:29 | -42.84925 | 170.64680 | 35547 ft | 461 kts | 40° |
| 2026-05-04 20:29 | -42.80004 | 170.70277 | 35541 ft | 461 kts | 40° |
| 2026-05-04 20:30 | -42.75108 | 170.75827 | 35550 ft | 461 kts | 40° |
| 2026-05-04 20:30 | -42.70172 | 170.81401 | 35544 ft | 461 kts | 39° |
| 2026-05-04 20:31 | -42.66034 | 170.86078 | 35559 ft | 461 kts | 40° |
| 2026-05-04 20:31 | -42.61100 | 170.91647 | 35570 ft | 461 kts | 40° |
| 2026-05-04 20:32 | -42.56164 | 170.97192 | 35569 ft | 460 kts | 39° |
| 2026-05-04 20:32 | -42.51233 | 171.02724 | 35566 ft | 460 kts | 40° |
| 2026-05-04 20:33 | -42.46304 | 171.08260 | 35567 ft | 460 kts | 39° |
| 2026-05-04 20:33 | -42.41374 | 171.13774 | 35566 ft | 460 kts | 39° |
| 2026-05-04 20:34 | -42.36441 | 171.19275 | 35571 ft | 460 kts | 39° |
| 2026-05-04 20:34 | -42.31504 | 171.24767 | 35568 ft | 460 kts | 39° |
| 2026-05-04 20:35 | -42.26557 | 171.30245 | 35576 ft | 460 kts | 39° |
| 2026-05-04 20:35 | -42.21616 | 171.35717 | 35576 ft | 459 kts | 39° |
| 2026-05-04 20:36 | -42.16714 | 171.41153 | 35579 ft | 459 kts | 39° |
| 2026-05-04 20:36 | -42.11778 | 171.46617 | 35574 ft | 459 kts | 39° |
| 2026-05-04 20:37 | -42.06832 | 171.52071 | 35577 ft | 459 kts | 39° |
| 2026-05-04 20:37 | -42.01889 | 171.57501 | 35566 ft | 459 kts | 39° |
| 2026-05-04 20:38 | -41.96968 | 171.62952 | 35569 ft | 458 kts | 41° |
| 2026-05-04 20:38 | -41.92234 | 171.68679 | 35572 ft | 458 kts | 43° |
| 2026-05-04 20:39 | -41.87584 | 171.74519 | 35564 ft | 458 kts | 43° |
| 2026-05-04 20:39 | -41.82898 | 171.80305 | 35570 ft | 458 kts | 42° |
| 2026-05-04 20:40 | -41.78167 | 171.86026 | 35575 ft | 458 kts | 42° |
| 2026-05-04 20:40 | -41.73429 | 171.91715 | 35579 ft | 457 kts | 42° |
| 2026-05-04 20:41 | -41.68700 | 171.97409 | 35566 ft | 457 kts | 42° |
| 2026-05-04 20:41 | -41.63971 | 172.03104 | 35576 ft | 457 kts | 42° |
| 2026-05-04 20:42 | -41.59244 | 172.08799 | 35577 ft | 458 kts | 42° |
| 2026-05-04 20:42 | -41.54512 | 172.14486 | 35572 ft | 458 kts | 42° |
| 2026-05-04 20:43 | -41.49769 | 172.20159 | 35563 ft | 458 kts | 42° |
| 2026-05-04 20:43 | -41.45017 | 172.25827 | 35568 ft | 458 kts | 42° |
| 2026-05-04 20:44 | -41.40305 | 172.31448 | 35575 ft | 458 kts | 42° |
| 2026-05-04 20:44 | -41.35561 | 172.37096 | 35564 ft | 457 kts | 42° |
| 2026-05-04 20:45 | -41.30815 | 172.42731 | 35556 ft | 458 kts | 42° |
| 2026-05-04 20:45 | -41.26056 | 172.48353 | 35552 ft | 458 kts | 41° |
| 2026-05-04 20:46 | -41.21304 | 172.53979 | 35552 ft | 457 kts | 42° |
| 2026-05-04 20:46 | -41.16555 | 172.59598 | 35561 ft | 457 kts | 41° |
| 2026-05-04 20:47 | -41.11792 | 172.65204 | 35547 ft | 457 kts | 42° |
| 2026-05-04 20:47 | -41.07037 | 172.70796 | 35543 ft | 457 kts | 42° |
| 2026-05-04 20:48 | -41.02277 | 172.76378 | 35546 ft | 457 kts | 42° |
| 2026-05-04 20:48 | -40.97516 | 172.81953 | 35547 ft | 457 kts | 42° |
| 2026-05-04 20:49 | -40.92755 | 172.87522 | 35542 ft | 457 kts | 41° |
| 2026-05-04 20:49 | -40.87989 | 172.93078 | 35540 ft | 457 kts | 42° |
| 2026-05-04 20:50 | -40.83247 | 172.98594 | 35543 ft | 457 kts | 41° |
| 2026-05-04 20:50 | -40.78443 | 173.04171 | 35540 ft | 457 kts | 42° |
| 2026-05-04 20:51 | -40.73670 | 173.09704 | 35546 ft | 457 kts | 41° |
| 2026-05-04 20:51 | -40.68925 | 173.15187 | 35550 ft | 457 kts | 42° |
| 2026-05-04 20:52 | -40.64153 | 173.20702 | 35541 ft | 456 kts | 41° |
| 2026-05-04 20:52 | -40.59378 | 173.26199 | 35546 ft | 456 kts | 41° |
| 2026-05-04 20:53 | -40.54606 | 173.31690 | 35542 ft | 456 kts | 41° |
| 2026-05-04 20:53 | -40.49827 | 173.37177 | 35544 ft | 456 kts | 42° |
| 2026-05-04 20:54 | -40.45049 | 173.42648 | 35541 ft | 456 kts | 42° |
| 2026-05-04 20:54 | -40.40270 | 173.48112 | 35546 ft | 456 kts | 42° |
| 2026-05-04 20:55 | -40.35483 | 173.53568 | 35542 ft | 456 kts | 41° |
| 2026-05-04 20:55 | -40.30690 | 173.59010 | 35550 ft | 456 kts | 41° |
| 2026-05-04 20:56 | -40.25897 | 173.64439 | 35555 ft | 455 kts | 41° |
| 2026-05-04 20:56 | -40.21102 | 173.69867 | 35561 ft | 455 kts | 41° |
| 2026-05-04 20:57 | -40.16312 | 173.75281 | 35562 ft | 455 kts | 41° |
| 2026-05-04 20:57 | -40.11516 | 173.80681 | 35560 ft | 455 kts | 41° |
| 2026-05-04 20:58 | -40.06716 | 173.86076 | 35566 ft | 455 kts | 41° |
| 2026-05-04 20:58 | -40.01918 | 173.91472 | 35553 ft | 455 kts | 42° |
| 2026-05-04 20:59 | -39.97123 | 173.96861 | 35561 ft | 455 kts | 41° |
| 2026-05-04 20:59 | -39.92324 | 174.02233 | 35562 ft | 455 kts | 41° |
| 2026-05-04 21:00 | -39.87515 | 174.07592 | 35573 ft | 455 kts | 41° |
| 2026-05-04 21:00 | -39.82708 | 174.12941 | 35560 ft | 455 kts | 41° |
| 2026-05-04 21:01 | -39.77899 | 174.18288 | 35567 ft | 455 kts | 41° |
| 2026-05-04 21:01 | -39.73089 | 174.23633 | 35571 ft | 455 kts | 41° |
| 2026-05-04 21:02 | -39.68276 | 174.28972 | 35579 ft | 455 kts | 41° |
| 2026-05-04 21:02 | -39.63449 | 174.34298 | 35577 ft | 455 kts | 40° |
| 2026-05-04 21:03 | -39.58665 | 174.39574 | 35573 ft | 454 kts | 41° |
| 2026-05-04 21:03 | -39.53821 | 174.44911 | 35577 ft | 454 kts | 40° |
| 2026-05-04 21:04 | -39.48550 | 174.49359 | 35577 ft | 454 kts | 23° |
| 2026-05-04 21:04 | -39.42466 | 174.51460 | 35582 ft | 454 kts | 8° |
| 2026-05-04 21:05 | -39.36212 | 174.52644 | 35575 ft | 454 kts | 8° |
| 2026-05-04 21:05 | -39.30004 | 174.53827 | 35577 ft | 454 kts | 8° |
| 2026-05-04 21:06 | -39.23756 | 174.55017 | 35580 ft | 454 kts | 8° |
| 2026-05-04 21:06 | -39.17509 | 174.56203 | 35587 ft | 453 kts | 8° |
| 2026-05-04 21:07 | -39.11271 | 174.57397 | 35587 ft | 453 kts | 8° |
| 2026-05-04 21:07 | -39.05039 | 174.58597 | 35589 ft | 453 kts | 8° |
| 2026-05-04 21:08 | -38.98804 | 174.59776 | 35578 ft | 452 kts | 7° |
| 2026-05-04 21:08 | -38.92581 | 174.60951 | 35583 ft | 452 kts | 8° |
| 2026-05-04 21:09 | -38.86363 | 174.62132 | 35575 ft | 451 kts | 7° |
| 2026-05-04 21:09 | -38.80150 | 174.63309 | 35580 ft | 451 kts | 8° |
| 2026-05-04 21:10 | -38.73939 | 174.64482 | 35570 ft | 451 kts | 7° |
| 2026-05-04 21:10 | -38.67731 | 174.65646 | 35564 ft | 451 kts | 7° |
| 2026-05-04 21:11 | -38.61528 | 174.66815 | 35571 ft | 451 kts | 7° |
| 2026-05-04 21:11 | -38.55328 | 174.67984 | 35579 ft | 450 kts | 7° |
| 2026-05-04 21:12 | -38.49133 | 174.69144 | 35565 ft | 450 kts | 7° |
| 2026-05-04 21:12 | -38.42935 | 174.70295 | 35568 ft | 450 kts | 7° |
| 2026-05-04 21:13 | -38.36748 | 174.71451 | 35578 ft | 449 kts | 7° |
| 2026-05-04 21:13 | -38.30563 | 174.72608 | 35424 ft | 449 kts | 7° |
| 2026-05-04 21:14 | -38.27458 | 174.73186 | 34599 ft | 453 kts | 7° |
| 2026-05-04 21:14 | -38.24327 | 174.73765 | 33626 ft | 455 kts | 6° |
| 2026-05-04 21:14 | -38.21195 | 174.74345 | 32758 ft | 455 kts | 6° |
| 2026-05-04 21:14 | -38.18066 | 174.74924 | 31837 ft | 454 kts | 6° |
| 2026-05-04 21:15 | -38.14939 | 174.75504 | 30886 ft | 454 kts | 6° |
| 2026-05-04 21:15 | -38.11813 | 174.76084 | 29791 ft | 454 kts | 6° |
| 2026-05-04 21:15 | -38.08692 | 174.76661 | 28743 ft | 453 kts | 6° |
| 2026-05-04 21:15 | -38.05575 | 174.77239 | 27620 ft | 453 kts | 6° |
| 2026-05-04 21:16 | -38.02470 | 174.77818 | 26899 ft | 447 kts | 7° |
| 2026-05-04 21:16 | -37.99454 | 174.78381 | 26201 ft | 441 kts | 7° |
| 2026-05-04 21:16 | -37.96438 | 174.78943 | 25468 ft | 436 kts | 7° |
| 2026-05-04 21:16 | -37.93447 | 174.79496 | 24736 ft | 433 kts | 8° |
| 2026-05-04 21:17 | -37.90478 | 174.80039 | 24010 ft | 430 kts | 8° |
| 2026-05-04 21:17 | -37.88485 | 174.80401 | 23461 ft | 427 kts | 7° |
| 2026-05-04 21:17 | -37.85541 | 174.80656 | 22742 ft | 422 kts | 0° |
| 2026-05-04 21:17 | -37.81679 | 174.80687 | 21788 ft | 416 kts | 1° |
| 2026-05-04 21:18 | -37.79729 | 174.80706 | 21307 ft | 414 kts | 1° |
| 2026-05-04 21:18 | -37.76863 | 174.80741 | 20597 ft | 410 kts | 1° |
| 2026-05-04 21:18 | -37.74020 | 174.80782 | 19923 ft | 407 kts | 1° |
| 2026-05-04 21:18 | -37.71198 | 174.80827 | 19263 ft | 404 kts | 1° |
| 2026-05-04 21:19 | -37.68395 | 174.80868 | 18596 ft | 402 kts | 1° |
| 2026-05-04 21:19 | -37.65639 | 174.80904 | 18363 ft | 389 kts | 1° |
| 2026-05-04 21:19 | -37.62981 | 174.80935 | 18224 ft | 374 kts | 1° |
| 2026-05-04 21:19 | -37.60425 | 174.80964 | 18043 ft | 361 kts | 2° |
| 2026-05-04 21:20 | -37.57956 | 174.81252 | 17636 ft | 354 kts | 12° |
| 2026-05-04 21:20 | -37.55573 | 174.81943 | 17137 ft | 350 kts | 14° |
| 2026-05-04 21:20 | -37.53216 | 174.82643 | 16544 ft | 346 kts | 14° |
| 2026-05-04 21:20 | -37.50883 | 174.83338 | 15885 ft | 343 kts | 14° |
| 2026-05-04 21:21 | -37.48566 | 174.84027 | 15211 ft | 342 kts | 14° |
| 2026-05-04 21:21 | -37.46270 | 174.84708 | 14648 ft | 337 kts | 14° |
| 2026-05-04 21:21 | -37.43998 | 174.85379 | 14071 ft | 332 kts | 13° |
| 2026-05-04 21:21 | -37.41759 | 174.86033 | 13534 ft | 329 kts | 13° |
| 2026-05-04 21:22 | -37.39537 | 174.86679 | 13009 ft | 326 kts | 13° |
| 2026-05-04 21:22 | -37.37362 | 174.87310 | 12504 ft | 324 kts | 13° |
| 2026-05-04 21:22 | -37.35174 | 174.87949 | 11995 ft | 322 kts | 13° |
| 2026-05-04 21:22 | -37.32991 | 174.88590 | 11481 ft | 323 kts | 13° |
| 2026-05-04 21:23 | -37.30804 | 174.89235 | 10964 ft | 323 kts | 13° |
| 2026-05-04 21:23 | -37.28616 | 174.89876 | 10485 ft | 323 kts | 13° |
| 2026-05-04 21:23 | -37.26471 | 174.90502 | 10337 ft | 310 kts | 13° |
| 2026-05-04 21:23 | -37.24408 | 174.91103 | 10201 ft | 299 kts | 13° |
| 2026-05-04 21:24 | -37.22421 | 174.91680 | 10033 ft | 287 kts | 13° |
| 2026-05-04 21:24 | -37.20495 | 174.92238 | 9705 ft | 280 kts | 13° |
| 2026-05-04 21:24 | -37.18633 | 174.92780 | 9480 ft | 271 kts | 14° |
| 2026-05-04 21:24 | -37.16806 | 174.93313 | 9073 ft | 269 kts | 14° |
| 2026-05-04 21:25 | -37.15054 | 174.94058 | 8696 ft | 265 kts | 26° |
| 2026-05-04 21:25 | -37.13513 | 174.95301 | 8319 ft | 262 kts | 39° |
| 2026-05-04 21:25 | -37.12116 | 174.96773 | 7922 ft | 262 kts | 39° |
| 2026-05-04 21:25 | -37.10726 | 174.98231 | 7500 ft | 261 kts | 39° |
| 2026-05-04 21:26 | -37.09346 | 174.99677 | 7178 ft | 257 kts | 39° |
| 2026-05-04 21:26 | -37.07980 | 175.01103 | 6776 ft | 255 kts | 39° |
| 2026-05-04 21:26 | -37.06620 | 175.02520 | 6356 ft | 253 kts | 39° |
| 2026-05-04 21:26 | -37.05262 | 175.03939 | 5914 ft | 253 kts | 39° |
| 2026-05-04 21:27 | -37.03933 | 175.05326 | 5730 ft | 242 kts | 38° |
| 2026-05-04 21:27 | -37.02525 | 175.06342 | 5596 ft | 229 kts | 18° |
| 2026-05-04 21:27 | -37.00987 | 175.06606 | 5305 ft | 225 kts | 358° |
| 2026-05-04 21:27 | -36.99444 | 175.06132 | 4734 ft | 233 kts | 342° |
| 2026-05-04 21:28 | -36.97911 | 175.05453 | 4210 ft | 238 kts | 343° |
| 2026-05-04 21:28 | -36.96354 | 175.04703 | 3676 ft | 243 kts | 332° |
| 2026-05-04 21:28 | -36.95205 | 175.03177 | 3157 ft | 253 kts | 295° |
| 2026-05-04 21:28 | -36.95026 | 175.01014 | 3002 ft | 245 kts | 257° |
| 2026-05-04 21:29 | -36.95587 | 174.99127 | 3007 ft | 226 kts | 249° |
| 2026-05-04 21:29 | -36.96114 | 174.97353 | 3036 ft | 215 kts | 252° |
| 2026-05-04 21:29 | -36.96585 | 174.95607 | 3010 ft | 209 kts | 253° |
| 2026-05-04 21:29 | -36.97023 | 174.93957 | 3006 ft | 191 kts | 253° |
| 2026-05-04 21:30 | -36.97444 | 174.92471 | 2988 ft | 173 kts | 244° |
| 2026-05-04 21:30 | -36.98249 | 174.91324 | 3015 ft | 179 kts | 207° |
| 2026-05-04 21:30 | -36.99432 | 174.91060 | 3014 ft | 173 kts | 162° |
| 2026-05-04 21:30 | -37.00419 | 174.91806 | 3013 ft | 164 kts | 122° |
| 2026-05-04 21:31 | -37.00437 | 174.94388 | 3017 ft | 155 kts | 66° |
| 2026-05-04 21:31 | -36.99994 | 174.95609 | 3013 ft | 154 kts | 54° |
| 2026-05-04 21:31 | -36.99240 | 174.96545 | 3014 ft | 154 kts | 39° |
| 2026-05-04 21:32 | -36.98612 | 174.97607 | 3020 ft | 154 kts | 64° |
| 2026-05-04 21:32 | -36.98244 | 174.98872 | 3017 ft | 155 kts | 70° |
| 2026-05-04 21:32 | -36.97918 | 175.00158 | 3016 ft | 155 kts | 70° |
| 2026-05-04 21:32 | -36.97520 | 175.01401 | 3016 ft | 154 kts | 53° |
| 2026-05-04 21:33 | -36.96674 | 175.02181 | 3011 ft | 155 kts | 17° |
| 2026-05-04 21:33 | -36.95587 | 175.02125 | 2821 ft | 162 kts | 339° |
| 2026-05-04 21:33 | -36.94768 | 175.01153 | 2617 ft | 170 kts | 298° |
| 2026-05-04 21:33 | -36.94683 | 174.99679 | 2477 ft | 177 kts | 252° |
| 2026-05-04 21:34 | -36.95354 | 174.98395 | 2367 ft | 178 kts | 230° |
| 2026-05-04 21:34 | -36.96041 | 174.97108 | 2241 ft | 179 kts | 240° |
| 2026-05-04 21:34 | -36.96600 | 174.95725 | 2136 ft | 178 kts | 254° |
| 2026-05-04 21:34 | -36.96947 | 174.94241 | 1945 ft | 177 kts | 253° |
| 2026-05-04 21:35 | -36.97324 | 174.92782 | 1742 ft | 176 kts | 252° |
| 2026-05-04 21:35 | -36.97710 | 174.91337 | 1550 ft | 174 kts | 251° |
| 2026-05-04 21:35 | -36.98099 | 174.89904 | 1356 ft | 174 kts | 251° |
| 2026-05-04 21:35 | -36.98486 | 174.88485 | 1177 ft | 172 kts | 250° |
| 2026-05-04 21:36 | -36.98873 | 174.87077 | 974 ft | 170 kts | 249° |
| 2026-05-04 21:36 | -36.99244 | 174.85726 | 783 ft | 156 kts | 250° |
| 2026-05-04 21:36 | -36.99586 | 174.84479 | 618 ft | 147 kts | 249° |
| 2026-05-04 21:36 | -36.99913 | 174.83283 | 447 ft | 143 kts | 251° |
| 2026-05-04 21:37 | -37.00238 | 174.82112 | 269 ft | 141 kts | 249° |
| 2026-05-04 21:37 | -37.00563 | 174.80951 | 98 ft | 142 kts | 249° |
| 2026-05-04 21:37 | -37.00875 | 174.79823 | 27 ft | 124 kts | 252° |
| 2026-05-04 21:37 | -37.01101 | 174.79003 | 25 ft | 75 kts | 251° |
| 2026-05-04 21:38 | -37.01225 | 174.78557 | 25 ft | 37 kts | 252° |
| 2026-05-04 21:38 | -37.01247 | 174.78301 | 26 ft | 29 kts | 275° |
| 2026-05-04 21:38 | -37.01220 | 174.78127 | 27 ft | 9 kts | 289° |
| 2026-05-04 21:38 | -37.01160 | 174.78115 | 27 ft | 11 kts | 37° |
| 2026-05-04 21:39 | -37.01126 | 174.78212 | 26 ft | 14 kts | 70° |
| 2026-05-04 21:39 | -37.01091 | 174.78338 | 26 ft | 17 kts | 71° |
| 2026-05-04 21:39 | -37.01048 | 174.78491 | 28 ft | 20 kts | 71° |
| 2026-05-04 21:39 | -37.01000 | 174.78667 | 27 ft | 23 kts | 71° |
| 2026-05-04 21:40 | -37.00946 | 174.78865 | 25 ft | 25 kts | 71° |
| 2026-05-04 21:40 | -37.00886 | 174.79081 | 25 ft | 27 kts | 71° |
| 2026-05-04 21:40 | -37.00839 | 174.79254 | 25 ft | 21 kts | 70° |
| 2026-05-04 21:40 | -37.00767 | 174.79322 | 29 ft | 15 kts | 336° |
| 2026-05-04 21:41 | -37.00763 | 174.79205 | 25 ft | 13 kts | 249° |
| 2026-05-04 21:41 | -37.00776 | 174.79130 | 27 ft | 7 kts | 297° |
| 2026-05-04 21:41 | -37.00733 | 174.79106 | 27 ft | 5 kts | 340° |
| 2026-05-04 21:41 | -37.00714 | 174.79097 | 28 ft | 1 kts | 341° |